Time;durP1;ratioP1;P1;durP2;ratioP2;P2;SDS_P1;SDS_P2;PMS_P1;PMS_P2;Temp;Humidity;BMP_temperature;BMP_pressure;BME280_temperature;BME280_humidity;BME280_pressure;Samples;Min_cycle;Max_cycle;Signal;HPM_P1;HPM_P2
2023/01/31 00:01:16;;;;;;;23.27;13.93;;;5.30;99.90;;;;;;5052740;28;20100;-54
2023/01/31 00:03:42;;;;;;;21.83;13.25;;;5.30;99.90;;;;;;5051918;28;20032;-55
2023/01/31 00:06:26;;;;;;;24.17;15.65;;;5.30;99.90;;;;;;5052793;28;20029;-55
2023/01/31 00:08:53;;;;;;;25.02;14.80;;;5.30;99.90;;;;;;5052829;28;20469;-57
2023/01/31 00:11:21;;;;;;;23.65;13.20;;;5.20;99.90;;;;;;5052545;28;20029;-51
2023/01/31 00:13:48;;;;;;;25.52;14.32;;;5.10;99.90;;;;;;5057497;28;20473;-55
2023/01/31 00:16:15;;;;;;;24.23;13.98;;;5.20;99.90;;;;;;5052869;28;20036;-58
2023/01/31 00:18:42;;;;;;;28.95;16.42;;;5.00;99.90;;;;;;5052578;28;20044;-54
2023/01/31 00:21:12;;;;;;;28.05;17.75;;;5.00;99.90;;;;;;5052678;28;20062;-53
2023/01/31 00:23:39;;;;;;;26.98;15.32;;;5.10;99.90;;;;;;5034028;28;20091;-56
2023/01/31 00:26:19;;;;;;;30.02;16.55;;;5.00;99.90;;;;;;5052517;28;20052;-56
2023/01/31 00:28:46;;;;;;;29.58;17.45;;;4.80;99.90;;;;;;5052527;28;20040;-56
2023/01/31 00:31:14;;;;;;;31.08;18.75;;;4.90;99.90;;;;;;5052657;28;20034;-54
2023/01/31 00:33:42;;;;;;;30.77;19.80;;;4.90;99.90;;;;;;5052281;28;20045;-53
2023/01/31 00:36:11;;;;;;;40.92;26.60;;;5.00;99.90;;;;;;5052423;28;20025;-52
2023/01/31 00:38:37;;;;;;;48.05;31.55;;;5.00;99.90;;;;;;5052435;28;20032;-56
2023/01/31 00:41:03;;;;;;;46.40;29.95;;;5.10;99.90;;;;;;5033868;28;20086;-58
2023/01/31 00:43:32;;;;;;;37.58;23.73;;;5.10;99.90;;;;;;5052309;28;20056;-54
2023/01/31 00:45:59;;;;;;;39.90;24.50;;;5.10;99.90;;;;;;5053946;28;20025;-53
2023/01/31 00:48:25;;;;;;;36.58;24.42;;;5.10;99.90;;;;;;5055833;28;20481;-53
2023/01/31 00:50:51;;;;;;;27.13;16.88;;;5.10;99.90;;;;;;5055663;28;20400;-54
2023/01/31 00:53:22;;;;;;;24.70;15.13;;;5.10;99.90;;;;;;5055545;28;20029;-56
2023/01/31 00:55:52;;;;;;;21.70;13.27;;;5.10;99.90;;;;;;5056035;28;20055;-52
2023/01/31 00:58:18;;;;;;;21.25;13.30;;;5.10;99.90;;;;;;5055931;28;20029;-53
2023/01/31 01:00:44;;;;;;;22.75;13.00;;;5.10;99.90;;;;;;5055360;28;20068;-52
2023/01/31 01:03:10;;;;;;;17.23;11.55;;;5.10;99.90;;;;;;5055671;28;20487;-53
2023/01/31 01:05:36;;;;;;;18.55;11.32;;;5.00;99.90;;;;;;5056005;28;20096;-52
2023/01/31 01:08:01;;;;;;;15.35;9.93;;;5.10;99.90;;;;;;5020749;28;20041;-54
2023/01/31 01:10:27;;;;;;;26.27;15.35;;;5.10;99.90;;;;;;5037092;28;20045;-53
2023/01/31 01:12:53;;;;;;;25.35;14.02;;;5.10;99.90;;;;;;5055923;28;20564;-54
2023/01/31 01:15:19;;;;;;;73.50;33.22;;;5.20;99.90;;;;;;5037044;28;20045;-52
2023/01/31 01:17:44;;;;;;;44.72;21.50;;;5.30;99.90;;;;;;5055591;28;20082;-52
2023/01/31 01:20:11;;;;;;;74.45;30.25;;;5.30;99.90;;;;;;5055506;28;20481;-54
2023/01/31 01:22:37;;;;;;;18.45;11.43;;;5.20;99.90;;;;;;5036919;28;20041;-53
2023/01/31 01:25:03;;;;;;;11.23;6.72;;;5.30;99.90;;;;;;5055739;28;20025;-54
2023/01/31 01:27:30;;;;;;;10.35;6.45;;;5.20;99.90;;;;;;5020462;28;20033;-53
2023/01/31 01:29:57;;;;;;;21.10;12.15;;;5.20;99.90;;;;;;5055225;28;20098;-55
2023/01/31 01:32:22;;;;;;;22.55;11.77;;;5.10;99.90;;;;;;5055694;28;20049;-54
2023/01/31 01:34:49;;;;;;;23.42;12.10;;;5.10;99.90;;;;;;5054827;28;20102;-54
2023/01/31 01:37:18;;;;;;;18.23;11.02;;;5.00;99.90;;;;;;5055422;28;20020;-52
2023/01/31 01:39:53;;;;;;;12.38;5.75;;;5.00;99.90;;;;;;5036986;28;20167;-52
2023/01/31 01:42:21;;;;;;;29.58;17.63;;;5.00;99.90;;;;;;5054897;28;20031;-54
2023/01/31 01:44:52;;;;;;;26.13;12.77;;;4.90;99.90;;;;;;5054925;28;20029;-54
2023/01/31 01:47:23;;;;;;;12.30;7.28;;;5.00;99.90;;;;;;5055333;28;20115;-55
2023/01/31 01:50:15;;;;;;;23.17;11.43;;;5.00;99.90;;;;;;5054696;28;20537;-53
2023/01/31 01:52:51;;;;;;;11.25;6.65;;;5.00;99.90;;;;;;4996482;28;20272;-57
2023/01/31 01:55:42;;;;;;;10.68;6.03;;;5.00;99.90;;;;;;5012755;28;20045;-54
2023/01/31 01:58:15;;;;;;;11.68;6.70;;;5.00;99.90;;;;;;5009660;28;20119;-55
2023/01/31 02:00:42;;;;;;;7.60;5.40;;;5.00;99.90;;;;;;5012729;28;20041;-57
2023/01/31 02:03:08;;;;;;;10.45;6.43;;;5.00;99.90;;;;;;5012906;28;20049;-52
2023/01/31 02:05:44;;;;;;;11.27;6.47;;;5.00;99.90;;;;;;4980164;28;20045;-54
2023/01/31 02:08:11;;;;;;;9.25;5.47;;;4.90;99.90;;;;;;4996086;28;20049;-54
2023/01/31 02:10:47;;;;;;;8.05;5.45;;;5.00;99.90;;;;;;5012572;28;20414;-55
2023/01/31 02:13:14;;;;;;;8.57;4.60;;;5.00;99.90;;;;;;5012746;28;20029;-57
2023/01/31 02:15:39;;;;;;;9.18;5.72;;;5.00;99.90;;;;;;5012178;28;20026;-51
2023/01/31 02:18:07;;;;;;;10.00;6.28;;;5.00;99.90;;;;;;5012776;28;20437;-55
2023/01/31 02:21:01;;;;;;;9.02;5.53;;;5.00;99.90;;;;;;5012546;28;20030;-55
2023/01/31 02:23:48;;;;;;;8.43;5.97;;;5.10;99.90;;;;;;5012356;28;20034;-55
2023/01/31 02:26:19;;;;;;;8.68;5.82;;;5.10;99.90;;;;;;5012559;28;20034;-55
2023/01/31 02:29:03;;;;;;;8.45;6.05;;;5.10;99.90;;;;;;5017030;28;20390;-53
2023/01/31 02:31:38;;;;;;;8.70;5.57;;;5.20;99.90;;;;;;5054173;28;20056;-55
2023/01/31 02:34:13;;;;;;;7.90;5.05;;;5.20;99.90;;;;;;5054328;28;20477;-54
2023/01/31 02:37:00;;;;;;;8.57;5.47;;;5.30;99.90;;;;;;5054211;28;20632;-55
2023/01/31 02:39:38;;;;;;;8.55;5.80;;;5.30;99.90;;;;;;5054047;28;20511;-57
2023/01/31 02:42:09;;;;;;;10.02;6.30;;;5.40;99.90;;;;;;5053769;28;20061;-54
2023/01/31 02:44:58;;;;;;;9.02;5.32;;;5.50;99.90;;;;;;5035340;28;20029;-53
2023/01/31 02:47:39;;;;;;;9.52;6.07;;;5.50;99.90;;;;;;5053575;28;20393;-53
2023/01/31 02:50:20;;;;;;;9.88;6.18;;;5.60;99.90;;;;;;5053610;28;20384;-52
2023/01/31 02:52:48;;;;;;;9.60;5.03;;;5.60;99.90;;;;;;5054070;28;20029;-52
2023/01/31 02:58:23;;;;;;;10.60;6.55;;;5.60;99.90;;;;;;5053910;28;20091;-57
2023/01/31 03:00:50;;;;;;;10.48;6.65;;;5.60;99.90;;;;;;5053237;28;20032;-54
2023/01/31 03:03:21;;;;;;;9.02;5.25;;;5.60;99.90;;;;;;5054005;28;20033;-53
2023/01/31 03:06:22;;;;;;;7.50;4.95;;;5.60;99.90;;;;;;5053076;28;20017;-51
2023/01/31 03:08:56;;;;;;;8.25;5.15;;;5.60;99.90;;;;;;5053102;28;20032;-52
2023/01/31 03:11:32;;;;;;;9.32;5.68;;;5.60;99.90;;;;;;5053556;28;20044;-57
2023/01/31 03:14:32;;;;;;;9.55;5.93;;;5.60;99.90;;;;;;5053182;28;20028;-56
2023/01/31 03:17:32;;;;;;;8.40;5.60;;;5.70;99.90;;;;;;5048946;28;20388;-54
2023/01/31 03:20:07;;;;;;;7.32;4.80;;;5.70;99.90;;;;;;5053573;28;20028;-56
2023/01/31 03:22:37;;;;;;;7.40;3.90;;;5.80;99.90;;;;;;5053182;28;20029;-53
2023/01/31 03:25:05;;;;;;;8.85;5.57;;;5.80;99.90;;;;;;5053076;28;20025;-51
2023/01/31 03:27:32;;;;;;;11.77;6.25;;;5.90;99.90;;;;;;5002177;28;20536;-53
2023/01/31 03:30:08;;;;;;;10.30;6.40;;;5.90;99.90;;;;;;5052903;28;20041;-55
2023/01/31 03:32:44;;;;;;;9.75;6.47;;;5.90;99.90;;;;;;5017904;28;20056;-56
2023/01/31 03:35:10;;;;;;;10.85;7.22;;;5.90;99.90;;;;;;5053135;28;20081;-52
2023/01/31 03:37:46;;;;;;;10.95;6.32;;;6.00;99.90;;;;;;5052999;28;20103;-54
2023/01/31 03:40:29;;;;;;;11.85;7.15;;;6.00;99.90;;;;;;5053127;28;20377;-56
2023/01/31 03:43:02;;;;;;;11.27;7.55;;;6.00;99.90;;;;;;5053530;28;20445;-81
2023/01/31 03:45:42;;;;;;;10.63;6.63;;;6.00;99.90;;;;;;5057549;28;20029;-55
2023/01/31 03:48:13;;;;;;;12.18;7.60;;;6.00;99.90;;;;;;5057865;28;20099;-56
2023/01/31 03:50:46;;;;;;;12.00;7.75;;;6.00;99.90;;;;;;5023101;28;20055;-56
2023/01/31 03:53:25;;;;;;;32.00;14.88;;;5.90;99.90;;;;;;5057420;28;20037;-53
2023/01/31 03:56:04;;;;;;;14.70;8.23;;;6.00;99.90;;;;;;5053083;28;20104;-55
2023/01/31 03:58:35;;;;;;;14.68;9.07;;;6.00;99.90;;;;;;5055736;28;20025;-61
2023/01/31 04:01:06;;;;;;;11.75;7.18;;;6.00;99.90;;;;;;5056239;28;20043;-60
2023/01/31 04:03:35;;;;;;;13.90;7.97;;;5.90;99.90;;;;;;5056145;28;20060;-56
2023/01/31 04:06:01;;;;;;;12.55;7.40;;;6.00;99.90;;;;;;5056488;28;20025;-54
2023/01/31 04:08:26;;;;;;;11.45;7.40;;;5.90;99.90;;;;;;5053719;28;20033;-55
2023/01/31 04:10:54;;;;;;;11.18;6.45;;;6.00;99.90;;;;;;5034075;28;20564;-51
2023/01/31 04:13:20;;;;;;;12.00;6.80;;;6.00;99.90;;;;;;5052590;28;20111;-53
2023/01/31 04:15:46;;;;;;;10.38;6.32;;;6.10;99.90;;;;;;5053191;28;20116;-53
2023/01/31 04:18:12;;;;;;;14.73;8.32;;;6.00;99.90;;;;;;5052625;28;20550;-53
2023/01/31 04:20:38;;;;;;;11.50;6.70;;;6.00;99.90;;;;;;5053775;28;20100;-57
2023/01/31 04:23:04;;;;;;;12.68;6.97;;;5.90;99.90;;;;;;5056703;28;20111;-56
2023/01/31 04:25:29;;;;;;;8.93;5.20;;;6.00;99.90;;;;;;5056906;28;20381;-54
2023/01/31 04:27:55;;;;;;;11.27;6.97;;;5.80;99.90;;;;;;5038014;28;20091;-56
2023/01/31 04:30:21;;;;;;;10.25;5.63;;;5.90;99.90;;;;;;5056205;28;20040;-59
2023/01/31 04:32:47;;;;;;;11.07;6.47;;;5.80;99.90;;;;;;5056367;28;20501;-54
2023/01/31 04:35:12;;;;;;;9.43;4.80;;;5.80;99.90;;;;;;5056454;28;20033;-56
2023/01/31 04:37:38;;;;;;;9.45;6.00;;;5.80;99.90;;;;;;5021252;28;20060;-56
2023/01/31 04:40:04;;;;;;;8.35;5.75;;;5.70;99.90;;;;;;5056652;28;20063;-55
2023/01/31 04:42:30;;;;;;;6.78;4.30;;;5.70;99.90;;;;;;5043986;28;20037;-56
2023/01/31 04:44:56;;;;;;;7.43;4.10;;;5.70;99.90;;;;;;5061071;28;20056;-53
2023/01/31 04:47:22;;;;;;;8.32;5.35;;;5.60;99.90;;;;;;5060838;28;20029;-60
2023/01/31 04:49:47;;;;;;;7.60;5.15;;;5.60;99.90;;;;;;5059325;28;20033;-53
2023/01/31 04:52:13;;;;;;;8.07;5.38;;;5.60;99.90;;;;;;5039467;28;20036;-56
2023/01/31 04:54:40;;;;;;;9.02;6.30;;;5.60;99.90;;;;;;5057590;28;20112;-58
2023/01/31 04:57:06;;;;;;;12.73;6.88;;;5.50;99.90;;;;;;5057649;28;20040;-55
2023/01/31 04:59:32;;;;;;;10.60;6.95;;;5.50;99.90;;;;;;5057268;28;20420;-55
2023/01/31 05:01:57;;;;;;;10.15;6.03;;;5.50;99.90;;;;;;5055928;28;20495;-56
2023/01/31 05:04:25;;;;;;;11.25;5.70;;;5.50;99.90;;;;;;5055843;28;20486;-56
2023/01/31 05:06:51;;;;;;;8.50;5.50;;;5.30;99.90;;;;;;5055760;28;20041;-54
2023/01/31 05:09:17;;;;;;;10.07;5.80;;;5.40;99.90;;;;;;5055844;28;20082;-54
2023/01/31 05:11:43;;;;;;;9.60;5.97;;;5.40;99.90;;;;;;5053457;28;20057;-57
2023/01/31 05:14:09;;;;;;;9.20;5.40;;;5.50;99.90;;;;;;5055991;28;20060;-57
2023/01/31 05:16:35;;;;;;;10.38;6.57;;;5.50;99.90;;;;;;5054899;28;20060;-52
2023/01/31 05:19:00;;;;;;;11.68;6.15;;;5.50;99.90;;;;;;5055781;28;20025;-57
2023/01/31 05:21:26;;;;;;;10.32;6.32;;;5.50;99.90;;;;;;5036552;28;20037;-59
2023/01/31 05:23:52;;;;;;;9.15;5.80;;;5.50;99.90;;;;;;5055556;28;20141;-56
2023/01/31 05:26:18;;;;;;;10.27;6.35;;;5.50;99.90;;;;;;5055163;28;20167;-55
2023/01/31 05:28:43;;;;;;;10.27;6.78;;;5.50;99.90;;;;;;5055559;28;20039;-54
2023/01/31 05:31:11;;;;;;;15.25;9.05;;;5.50;99.90;;;;;;5055374;28;20148;-54
2023/01/31 05:33:38;;;;;;;24.83;14.57;;;5.50;99.90;;;;;;5054516;28;20064;-58
2023/01/31 05:36:04;;;;;;;19.52;11.35;;;5.60;99.90;;;;;;5053429;28;20037;-58
2023/01/31 05:38:29;;;;;;;16.25;10.50;;;5.70;99.90;;;;;;5086703;28;20040;-56
2023/01/31 05:40:55;;;;;;;15.52;8.40;;;5.70;99.90;;;;;;5036589;28;20056;-57
2023/01/31 05:43:21;;;;;;;10.70;7.47;;;5.70;99.90;;;;;;5073682;28;20072;-53
2023/01/31 05:45:48;;;;;;;8.02;5.53;;;5.70;99.90;;;;;;5003179;28;20111;-55
2023/01/31 05:48:14;;;;;;;9.88;5.63;;;5.80;99.90;;;;;;5019540;28;20041;-57
2023/01/31 05:50:40;;;;;;;8.32;5.68;;;5.80;99.90;;;;;;5054128;28;20119;-55
2023/01/31 05:53:06;;;;;;;8.98;5.07;;;5.70;99.90;;;;;;5054714;28;20043;-55
2023/01/31 05:55:31;;;;;;;9.38;5.43;;;5.70;99.90;;;;;;5054748;28;20039;-57
2023/01/31 05:57:59;;;;;;;7.78;4.80;;;5.70;99.90;;;;;;5053637;28;20043;-55
2023/01/31 06:00:25;;;;;;;9.70;5.22;;;5.70;99.90;;;;;;5034187;28;20045;-53
2023/01/31 06:02:50;;;;;;;9.98;5.68;;;5.70;99.90;;;;;;5054642;28;20021;-53
2023/01/31 06:05:17;;;;;;;8.80;4.82;;;5.70;99.90;;;;;;5050366;28;20474;-52
2023/01/31 06:07:42;;;;;;;8.20;4.65;;;5.70;99.90;;;;;;5054286;28;20029;-55
2023/01/31 06:10:10;;;;;;;6.97;4.72;;;5.60;99.90;;;;;;5084529;28;20045;-53
2023/01/31 06:12:36;;;;;;;7.88;5.03;;;5.60;99.90;;;;;;5035861;28;20060;-56
2023/01/31 06:15:02;;;;;;;12.27;6.70;;;5.60;99.90;;;;;;5054784;28;20025;-54
2023/01/31 06:17:28;;;;;;;9.55;5.85;;;5.60;99.90;;;;;;5054585;28;20025;-55
2023/01/31 06:19:54;;;;;;;9.45;6.68;;;5.50;99.90;;;;;;5054334;28;20033;-57
2023/01/31 06:22:20;;;;;;;9.10;5.50;;;5.50;99.90;;;;;;5054606;28;20393;-52
2023/01/31 06:24:45;;;;;;;9.40;6.18;;;5.40;99.90;;;;;;5054205;28;20104;-50
2023/01/31 06:27:11;;;;;;;10.38;7.13;;;5.30;99.90;;;;;;5003024;28;20044;-52
2023/01/31 06:29:37;;;;;;;10.75;6.45;;;5.20;99.90;;;;;;5018814;28;20041;-53
2023/01/31 06:32:03;;;;;;;16.60;8.57;;;5.20;99.90;;;;;;5052525;28;20133;-53
2023/01/31 06:34:29;;;;;;;12.00;7.75;;;5.20;99.90;;;;;;5054326;28;20025;-52
2023/01/31 06:36:54;;;;;;;13.90;8.63;;;5.20;99.90;;;;;;5052887;28;20028;-52
2023/01/31 06:39:20;;;;;;;12.07;7.40;;;5.10;99.90;;;;;;5053858;28;20493;-53
2023/01/31 06:41:46;;;;;;;21.15;11.82;;;5.10;99.90;;;;;;5053438;28;20115;-52
2023/01/31 06:44:11;;;;;;;17.67;11.80;;;5.10;99.90;;;;;;5053719;28;20035;-53
2023/01/31 06:46:37;;;;;;;19.70;11.20;;;5.10;99.90;;;;;;5085292;28;20037;-51
2023/01/31 06:49:03;;;;;;;15.25;10.65;;;5.60;99.90;;;;;;5052768;28;20136;-54
2023/01/31 06:51:29;;;;;;;12.45;8.43;;;;;;;;;;5033489;28;20507;-54
2023/01/31 06:53:56;;;;;;;12.57;8.57;;;;;;;;;;5053695;28;20061;-53
2023/01/31 06:56:22;;;;;;;10.60;6.70;;;11.10;99.90;;;;;;5053901;28;20029;-54
2023/01/31 06:58:48;;;;;;;9.50;5.25;;;12.30;99.90;;;;;;5053616;28;20028;-52
2023/01/31 07:01:14;;;;;;;11.52;7.72;;;12.00;99.90;;;;;;5053717;28;20025;-53
2023/01/31 07:03:40;;;;;;;11.75;8.38;;;;;;;;;;5053950;28;20028;-53
2023/01/31 07:06:07;;;;;;;16.63;8.50;;;;;;;;;;5053601;28;20099;-51
2023/01/31 07:08:34;;;;;;;15.57;11.55;;;11.50;99.90;;;;;;5052389;28;20024;-51
2023/01/31 07:11:02;;;;;;;9.60;5.65;;;11.60;99.90;;;;;;5053363;28;20103;-53
2023/01/31 07:13:28;;;;;;;9.32;6.78;;;11.10;99.90;;;;;;5050137;28;20370;-54
2023/01/31 07:15:55;;;;;;;10.40;7.05;;;12.40;99.90;;;;;;5053266;28;20029;-51
2023/01/31 07:18:21;;;;;;;7.68;5.38;;;;;;;;;;5053318;28;20056;-52
2023/01/31 07:20:48;;;;;;;6.85;5.43;;;12.40;97.70;;;;;;5084951;28;20033;-51
2023/01/31 07:23:14;;;;;;;8.45;5.53;;;12.40;97.10;;;;;;5053193;28;20112;-52
2023/01/31 07:25:39;;;;;;;8.38;6.25;;;13.30;99.90;;;;;;5053176;28;20155;-52
2023/01/31 07:28:06;;;;;;;7.40;5.30;;;;;;;;;;5053186;28;20074;-53
2023/01/31 07:30:31;;;;;;;14.77;9.02;;;14.00;99.90;;;;;;5053063;28;20064;-54
2023/01/31 07:32:57;;;;;;;9.13;6.30;;;;;;;;;;5053074;28;20584;-52
2023/01/31 07:35:23;;;;;;;13.30;6.70;;;16.00;92.90;;;;;;5053615;28;20032;-54
2023/01/31 07:37:52;;;;;;;8.98;5.93;;;15.80;93.10;;;;;;5053100;28;20484;-53
2023/01/31 07:40:18;;;;;;;12.82;8.10;;;;;;;;;;5053078;28;20110;-51
2023/01/31 07:42:44;;;;;;;11.60;7.82;;;13.20;99.90;;;;;;5053509;28;20357;-54
2023/01/31 07:45:11;;;;;;;11.85;8.27;;;12.50;93.60;;;;;;5053166;28;20029;-55
2023/01/31 07:47:38;;;;;;;18.17;10.45;;;;;;;;;;5053037;28;20401;-51
2023/01/31 07:50:04;;;;;;;9.95;8.80;;;;;;;;;;5084362;28;20148;-51
2023/01/31 07:52:31;;;;;;;13.90;12.10;;;;;;;;;;5067945;28;20087;-52
2023/01/31 07:54:56;;;;;;;15.15;10.60;;;13.60;99.90;;;;;;5052332;28;20037;-51
2023/01/31 07:57:22;;;;;;;12.55;10.30;;;14.60;94.40;;;;;;5052839;28;20123;-52
2023/01/31 07:59:49;;;;;;;9.55;8.23;;;;;;;;;;5053052;28;20410;-51
2023/01/31 08:05:00;;;;;;;15.50;14.18;;;;;;;;;;5053091;28;20044;-51
2023/01/31 08:07:28;;;;;;;15.07;13.73;;;16.60;99.90;;;;;;5049936;28;20029;-51
2023/01/31 08:09:54;;;;;;;7.80;7.00;;;;;;;;;;5052604;28;20048;-51
2023/01/31 08:12:21;;;;;;;15.02;10.63;;;;;;;;;;5052877;28;20036;-50
2023/01/31 08:14:47;;;;;;;12.70;11.60;;;;;;;;;;5051520;28;20029;-52
2023/01/31 08:17:13;;;;;;;15.05;10.85;;;;;;;;;;5050415;28;20036;-52
2023/01/31 08:19:39;;;;;;;12.40;11.10;;;;;;;;;;5049544;28;20074;-51
2023/01/31 08:22:05;;;;;;;17.05;15.55;;;18.30;99.90;;;;;;5052373;28;20074;-53
2023/01/31 08:24:31;;;;;;;15.50;10.45;;;18.00;97.40;;;;;;5052075;28;20457;-52
2023/01/31 08:26:58;;;;;;;10.95;8.80;;;17.90;97.20;;;;;;5050931;28;20072;-59
2023/01/31 08:29:24;;;;;;;12.68;8.30;;;15.70;90.20;;;;;;5050155;28;20048;-58
2023/01/31 08:31:51;;;;;;;17.67;10.68;;;15.10;91.10;;;;;;5051546;28;20036;-55
2023/01/31 08:34:17;;;;;;;21.58;13.05;;;13.40;92.60;;;;;;5051577;28;20465;-56
2023/01/31 08:36:43;;;;;;;16.50;9.88;;;;;;;;;;5052146;28;20028;-62
2023/01/31 08:39:09;;;;;;;13.40;8.48;;;13.20;92.40;;;;;;5052463;28;20476;-60
2023/01/31 08:41:39;;;;;;;16.58;8.65;;;12.80;92.80;;;;;;5051507;28;20116;-56
2023/01/31 08:44:06;;;;;;;12.73;6.97;;;;;;;;;;5016694;28;20037;-60
2023/01/31 08:46:33;;;;;;;4.10;3.22;;;;;;;;;;5052161;28;20024;-57
2023/01/31 08:49:04;;;;;;;4.50;3.03;;;;;;;;;;5051919;28;20028;-57
2023/01/31 08:51:30;;;;;;;7.45;4.30;;;10.50;99.90;;;;;;5051595;28;20055;-54
2023/01/31 08:53:57;;;;;;;8.48;4.40;;;;;;;;;;5052226;28;20025;-56
2023/01/31 08:56:26;;;;;;;3.08;2.17;;;9.20;99.90;;;;;;5052147;28;20021;-55
2023/01/31 08:58:53;;;;;;;9.90;5.78;;;8.50;96.80;;;;;;5051632;28;20108;-57
2023/01/31 09:01:20;;;;;;;4.75;3.05;;;8.70;97.60;;;;;;5032828;28;20044;-58
2023/01/31 09:03:47;;;;;;;2.38;1.58;;;8.40;98.00;;;;;;5052002;28;20024;-62
2023/01/31 09:06:17;;;;;;;4.10;2.45;;;;;;;;;;5052652;28;20029;-61
2023/01/31 09:08:43;;;;;;;3.50;1.95;;;;;;;;;;5053578;28;20024;-53
2023/01/31 09:11:09;;;;;;;7.40;4.28;;;;;;;;;;5055577;28;20419;-54
2023/01/31 09:13:35;;;;;;;8.55;4.68;;;;;;;;;;5054024;28;20065;-51
2023/01/31 09:16:06;;;;;;;15.93;8.32;;;;;;;;;;5053035;28;20380;-56
2023/01/31 09:18:34;;;;;;;4.18;2.63;;;7.80;99.90;;;;;;5054615;28;20461;-57
2023/01/31 09:21:11;;;;;;;11.95;7.63;;;7.90;99.90;;;;;;5055135;28;20025;-55
2023/01/31 09:23:37;;;;;;;3.30;1.98;;;8.00;99.90;;;;;;5054647;28;20029;-56
2023/01/31 09:26:03;;;;;;;11.85;6.65;;;7.80;99.90;;;;;;5055364;28;20055;-55
2023/01/31 09:28:30;;;;;;;5.82;3.33;;;7.90;99.90;;;;;;5054913;28;20068;-58
2023/01/31 09:31:02;;;;;;;10.38;4.38;;;7.60;99.90;;;;;;5019510;28;20169;-57
2023/01/31 09:33:31;;;;;;;5.88;4.20;;;7.40;99.90;;;;;;5053140;28;20037;-56
2023/01/31 09:36:00;;;;;;;4.40;2.85;;;7.80;99.90;;;;;;5053545;28;20117;-56
2023/01/31 09:38:26;;;;;;;6.72;3.33;;;7.70;99.90;;;;;;5052967;28;20017;-59
2023/01/31 09:40:53;;;;;;;5.35;3.67;;;8.00;99.90;;;;;;5035982;28;20032;-57
2023/01/31 09:43:24;;;;;;;7.72;4.30;;;8.10;99.90;;;;;;5053975;28;20052;-59
2023/01/31 09:45:51;;;;;;;4.57;2.38;;;8.10;99.90;;;;;;5054585;28;20080;-56
2023/01/31 09:48:21;;;;;;;3.72;2.63;;;7.90;99.90;;;;;;5054449;28;20473;-60
2023/01/31 09:50:54;;;;;;;2.33;1.58;;;7.90;99.90;;;;;;5053587;28;20037;-61
2023/01/31 09:53:24;;;;;;;8.00;3.63;;;7.90;99.90;;;;;;5054597;28;20370;-60
2023/01/31 09:56:16;;;;;;;5.72;2.67;;;8.10;99.90;;;;;;5054511;28;20086;-55
2023/01/31 09:59:19;;;;;;;3.33;2.00;;;8.30;99.90;;;;;;5041881;28;20082;-58
2023/01/31 10:01:53;;;;;;;3.95;1.63;;;8.30;99.90;;;;;;5053041;28;20021;-56
2023/01/31 10:04:56;;;;;;;4.60;2.53;;;8.20;99.90;;;;;;5054145;28;20033;-58
2023/01/31 10:07:31;;;;;;;8.38;2.00;;;8.30;99.90;;;;;;5053803;28;20085;-56
2023/01/31 10:10:04;;;;;;;5.78;5.15;;;8.20;99.90;;;;;;5052672;28;20032;-58
2023/01/31 10:12:30;;;;;;;3.05;2.05;;;9.40;99.90;;;;;;5052750;28;20358;-55
2023/01/31 10:15:24;;;;;;;4.70;2.13;;;9.70;99.90;;;;;;5053949;28;20029;-56
2023/01/31 10:17:58;;;;;;;4.93;2.92;;;10.10;99.40;;;;;;5030435;28;20045;-57
2023/01/31 10:20:48;;;;;;;6.10;4.03;;;10.60;98.40;;;;;;5031729;28;20040;-59
2023/01/31 10:23:32;;;;;;;6.57;5.03;;;10.60;98.60;;;;;;5030125;28;20053;-59
2023/01/31 10:26:12;;;;;;;17.83;11.95;;;10.80;97.60;;;;;;5030201;28;20032;-58
2023/01/31 10:28:42;;;;;;;12.48;6.85;;;;;;;;;;5031370;28;20033;-59
2023/01/31 10:31:31;;;;;;;19.15;9.90;;;9.10;99.90;;;;;;5031189;28;20045;-58
2023/01/31 10:34:19;;;;;;;8.27;4.22;;;8.70;99.40;;;;;;5029838;28;20128;-56
2023/01/31 10:36:53;;;;;;;31.00;15.32;;;8.60;99.50;;;;;;5030259;28;20388;-58
2023/01/31 10:39:22;;;;;;;42.30;23.25;;;8.30;99.90;;;;;;5014640;28;20036;-57
2023/01/31 10:42:01;;;;;;;11.63;7.45;;;8.50;99.90;;;;;;5030985;28;20525;-62
2023/01/31 10:44:52;;;;;;;28.35;17.88;;;8.90;99.90;;;;;;5013484;28;20038;-58
2023/01/31 10:47:19;;;;;;;13.07;9.07;;;9.80;99.60;;;;;;5030505;28;20612;-55
2023/01/31 10:49:49;;;;;;;17.65;15.77;;;9.90;98.10;;;;;;5031122;28;20074;-58
2023/01/31 12:56:32;;;;;;;3.15;1.75;;;10.50;99.40;;;;;;5047037;28;20060;-47
2023/01/31 13:02:34;;;;;;;6.03;3.42;;;9.30;99.90;;;;;;5059096;28;20067;-48
2023/01/31 13:05:21;;;;;;;4.32;2.00;;;8.70;99.90;;;;;;5050069;28;20033;-47
2023/01/31 13:07:53;;;;;;;2.60;1.77;;;8.30;99.90;;;;;;5055584;28;20032;-47
2023/01/31 13:10:36;;;;;;;1.90;1.58;;;8.00;99.90;;;;;;5066145;28;20172;-48
2023/01/31 13:13:08;;;;;;;2.35;1.48;;;7.90;99.90;;;;;;5055066;28;20048;-48
2023/01/31 13:15:47;;;;;;;2.90;1.50;;;7.90;99.90;;;;;;5063241;28;20036;-48
2023/01/31 13:18:14;;;;;;;4.70;2.10;;;7.70;99.90;;;;;;5061360;28;20151;-48
2023/01/31 13:20:50;;;;;;;3.35;1.60;;;7.80;99.90;;;;;;5061012;28;20402;-47
2023/01/31 13:23:43;;;;;;;3.10;1.38;;;8.20;99.90;;;;;;5048759;28;20088;-48
2023/01/31 13:26:28;;;;;;;2.00;1.13;;;8.60;99.90;;;;;;4996281;28;20092;-47
2023/01/31 13:29:05;;;;;;;2.80;1.67;;;8.60;99.90;;;;;;4973439;28;20089;-49
2023/01/31 13:31:38;;;;;;;2.67;1.70;;;8.70;99.90;;;;;;4967434;28;20046;-51
2023/01/31 13:34:13;;;;;;;4.50;1.38;;;9.10;99.90;;;;;;4971720;28;20093;-50
2023/01/31 13:36:48;;;;;;;3.92;1.75;;;8.90;99.90;;;;;;4972519;28;20102;-50
2023/01/31 13:39:37;;;;;;;2.03;1.00;;;8.90;99.90;;;;;;4952883;28;20122;-50
2023/01/31 13:42:03;;;;;;;2.03;1.00;;;8.30;99.90;;;;;;4971122;28;20101;-51
2023/01/31 13:44:29;;;;;;;1.77;0.98;;;7.90;99.90;;;;;;4955359;28;20403;-50
2023/01/31 13:46:57;;;;;;;2.60;1.00;;;7.70;99.90;;;;;;4969680;28;20045;-48
2023/01/31 13:49:28;;;;;;;2.65;1.00;;;7.40;99.90;;;;;;4971344;28;20038;-48
2023/01/31 13:52:08;;;;;;;1.38;1.27;;;7.40;99.90;;;;;;4968345;28;20038;-48
2023/01/31 13:54:42;;;;;;;1.55;1.08;;;7.30;99.90;;;;;;4969397;28;20526;-48
2023/01/31 13:57:19;;;;;;;4.32;1.65;;;;;;;;;;4965456;28;20126;-48
2023/01/31 13:59:53;;;;;;;3.95;1.77;;;7.20;99.90;;;;;;4988010;28;20038;-47
2023/01/31 14:02:19;;;;;;;2.30;1.55;;;7.10;99.90;;;;;;5016363;28;20095;-48
2023/01/31 14:04:46;;;;;;;1.90;1.15;;;7.30;99.90;;;;;;5057433;28;20063;-48
2023/01/31 14:07:14;;;;;;;2.40;1.30;;;7.50;99.90;;;;;;5059694;28;20165;-48
2023/01/31 14:09:49;;;;;;;3.63;1.15;;;7.80;99.90;;;;;;5048779;28;20029;-48
2023/01/31 14:12:15;;;;;;;2.10;0.85;;;8.00;99.90;;;;;;5058703;28;20025;-48
2023/01/31 14:14:44;;;;;;;1.27;1.10;;;7.90;99.90;;;;;;5054297;28;20034;-47
2023/01/31 14:17:29;;;;;;;1.42;0.90;;;7.60;99.90;;;;;;5053812;28;20037;-48
2023/01/31 14:19:59;;;;;;;3.15;1.35;;;7.10;99.90;;;;;;5051532;28;20029;-47
2023/01/31 14:22:38;;;;;;;3.28;1.75;;;6.90;99.90;;;;;;5060183;28;20036;-48
2023/01/31 14:25:10;;;;;;;1.00;0.90;;;6.80;99.90;;;;;;5055535;28;20043;-48
2023/01/31 14:28:02;;;;;;;4.53;1.48;;;6.50;99.90;;;;;;5048719;28;20067;-48
2023/01/31 14:30:46;;;;;;;;;;;6.10;99.90;;;;;;5042164;28;20404;-48
2023/01/31 14:33:12;;;;;;;2.53;1.30;;;6.00;99.90;;;;;;5052696;28;20429;-47
2023/01/31 14:35:59;;;;;;;2.25;0.90;;;6.00;99.90;;;;;;5056003;28;20059;-47
2023/01/31 14:38:34;;;;;;;1.90;0.80;;;5.80;99.90;;;;;;5059947;28;20476;-48
2023/01/31 14:41:18;;;;;;;5.80;1.65;;;;;;;;;;5050270;28;20460;-48
2023/01/31 14:44:05;;;;;;;2.22;1.50;;;5.90;99.90;;;;;;5060355;28;20035;-48
2023/01/31 14:46:50;;;;;;;4.07;2.20;;;5.80;99.90;;;;;;5058593;28;20025;-48
2023/01/31 14:49:24;;;;;;;2.55;1.67;;;5.90;99.90;;;;;;5047311;28;20036;-48
2023/01/31 14:51:56;;;;;;;4.82;2.42;;;6.00;99.90;;;;;;5044142;28;20442;-47
2023/01/31 14:55:05;;;;;;;3.50;1.85;;;6.10;99.90;;;;;;5056935;28;20515;-48
2023/01/31 14:57:40;;;;;;;8.63;3.25;;;6.30;99.90;;;;;;5024448;28;20401;-48
2023/01/31 15:00:25;;;;;;;21.88;7.93;;;6.30;99.90;;;;;;4986832;28;20045;-47
2023/01/31 15:03:02;;;;;;;16.45;8.77;;;6.40;99.90;;;;;;5024431;28;20041;-48
2023/01/31 15:05:30;;;;;;;17.75;7.35;;;6.40;99.90;;;;;;4976928;28;20077;-48
2023/01/31 15:08:01;;;;;;;11.80;6.78;;;6.30;99.90;;;;;;4996134;28;21527;-48
2023/01/31 15:10:55;;;;;;;10.27;4.50;;;6.30;99.90;;;;;;4995422;28;20386;-48
2023/01/31 15:13:43;;;;;;;9.18;4.95;;;6.20;99.90;;;;;;5019761;28;20108;-48
2023/01/31 15:16:27;;;;;;;4.75;3.20;;;6.20;99.90;;;;;;4986672;28;20043;-47
2023/01/31 15:19:08;;;;;;;6.72;2.47;;;6.20;99.90;;;;;;5017683;28;20040;-48
2023/01/31 15:21:46;;;;;;;2.30;1.38;;;6.10;99.90;;;;;;5013303;28;20137;-48
2023/01/31 15:24:33;;;;;;;2.83;1.70;;;6.10;99.90;;;;;;5021484;28;20512;-48
2023/01/31 15:27:01;;;;;;;4.55;1.92;;;6.10;99.90;;;;;;5023111;28;20092;-48
2023/01/31 15:29:52;;;;;;;4.85;1.73;;;6.10;99.90;;;;;;4994197;28;20041;-48
2023/01/31 15:32:34;;;;;;;7.10;2.10;;;6.10;99.90;;;;;;5018205;28;20421;-48